Hauptseite
METAR-TAF:

METAR-TAF

Flughäfen :

Flughafen Bahrain

Bahrain, Bahrain

Breite: 26-16N, Länge: 050-39E, Höhe: 2 m

Beobachtung

Neuester Wetterbericht von vor 13 Minuten, um 13:00 UTC
Wind 10 kt aus Nordwest
Temperatur 17°C
Luftfeuchtigkeit 59%
Luftdruck 1019 hPa
Sichtweite 10 km oder mehr
Leicht bewölkt in der Höhe von 3000 ft

METAR: OBBI 241300Z 31010KT 9999 FEW030 17/09 Q1019 NOSIG

Zeit: 16:13 (13:13 UTC)

Prognose

Neuester Wetterbericht von vor 2 Stunden und 13 Minuten, um 11:00 UTC
Gültige Prognose vom 24 um 12 UTC bis 25 um 18 UTC
Wind 12 kt aus West/Nordwest
Sichtweite 10 km oder mehr
Aufgelockert bewölkt in der Höhe von 3500 ft
Übergehend zu
vom 24 um 19 UTC bis 24 um 21 UTC
Wind 8 kt aus Süd/Südost
Übergehend zu
vom 25 um 15 UTC bis 25 um 17 UTC
Wind 18 kt aus Nordwest

TAF: OBBI 241100Z 2412/2518 30012KT 9999 SCT035 BECMG 2419/2421 16008KT BECMG 2515/2517 32018KT

Wetterbeobachtungen und Prognosen von mehr als 4000 Flughäfen (METAR und TAF Bericht).

Die verfügbaren Stationen werden durch gelbe und rote Markierungen auf der Karte dargestellt.

Führen Sie die Maus auf sie, um den Namen der Station zu sehen.

Darauf klicken, um die Beobachtung von Wetterbeobachtungen und Prognosen zu sehen.

Um die Karte zu ändern : klicken Sie auf den grünen Tasten mit einem schwarzen Kreuz Zum Vergrößern, auf den grünen Button mit einem Gedankenstrich zu verkleinern, oder auf die grünen Pfeile für benachbarte Karten.


METAR-TAF: